Time;durP1;ratioP1;P1;durP2;ratioP2;P2;SDS_P1;SDS_P2;PMS_P1;PMS_P2;Temp;Humidity;BMP_temperature;BMP_pressure;BME280_temperature;BME280_humidity;BME280_pressure;Samples;Min_cycle;Max_cycle;Signal;HPM_P1;HPM_P2
2023/08/05 00:01:04;;;;;;;6.60;4.07;;;;;;;17.03;83.88;96575.75;4937353;29;20052;-78
2023/08/05 00:03:31;;;;;;;4.32;3.92;;;;;;;17.02;83.78;96575.94;4935872;29;20469;-78
2023/08/05 00:06:00;;;;;;;4.70;3.75;;;;;;;17.05;85.67;96576.31;4937166;29;20051;-78
2023/08/05 00:08:28;;;;;;;5.55;4.38;;;;;;;17.10;85.78;96573.00;4937478;29;20091;-78
2023/08/05 00:10:55;;;;;;;5.00;3.80;;;;;;;17.10;84.83;96565.09;4936759;29;20052;-78
2023/08/05 00:13:23;;;;;;;8.70;4.22;;;;;;;17.06;82.98;96563.94;4937026;29;20052;-78
2023/08/05 00:15:51;;;;;;;5.90;4.00;;;;;;;17.02;83.85;96576.75;4937217;29;20130;-78
2023/08/05 00:18:18;;;;;;;5.50;3.67;;;;;;;17.03;84.61;96564.38;4937075;29;20059;-78
2023/08/05 00:20:48;;;;;;;4.03;3.65;;;;;;;17.04;83.45;96568.63;4936381;29;20087;-78
2023/08/05 00:23:18;;;;;;;4.00;3.60;;;;;;;17.02;82.71;96565.41;4935945;29;20493;-78
2023/08/05 00:25:45;;;;;;;3.90;3.45;;;;;;;17.01;83.82;96561.97;4934583;29;20079;-78
2023/08/05 00:28:13;;;;;;;5.63;3.92;;;;;;;17.00;83.07;96557.72;4945958;28;20051;-79
2023/08/05 00:30:40;;;;;;;4.30;3.90;;;;;;;17.03;84.63;96551.19;4942104;29;20059;-79
2023/08/05 00:33:08;;;;;;;4.82;3.90;;;;;;;17.06;85.03;96543.66;4934356;29;20060;-79
2023/08/05 00:35:36;;;;;;;5.55;4.57;;;;;;;17.08;85.79;96548.72;4936029;29;20047;-79
2023/08/05 00:38:03;;;;;;;4.20;3.80;;;;;;;17.07;84.30;96547.09;4937848;29;20090;-79
2023/08/05 00:40:32;;;;;;;6.85;4.03;;;;;;;17.02;82.64;96542.50;4937257;29;20102;-79
2023/08/05 00:43:00;;;;;;;3.92;3.50;;;;;;;16.99;83.13;96537.69;4942918;29;20051;-79
2023/08/05 00:45:28;;;;;;;5.10;3.53;;;;;;;16.97;82.39;96541.56;4945690;29;20048;-79
2023/08/05 00:47:56;;;;;;;4.68;4.00;;;;;;;16.93;82.75;96545.69;4939472;29;20079;-79
2023/08/05 00:50:24;;;;;;;4.20;3.80;;;;;;;16.92;83.29;96550.13;4936594;29;20052;-78
2023/08/05 00:52:52;;;;;;;3.95;3.55;;;;;;;16.93;84.61;96548.31;4936634;29;20544;-79
2023/08/05 00:55:21;;;;;;;4.10;3.65;;;;;;;16.91;83.16;96553.78;4937139;29;20072;-78
2023/08/05 00:57:50;;;;;;;8.35;3.60;;;;;;;16.91;83.90;96559.06;4936405;29;20044;-78
2023/08/05 01:00:17;;;;;;;7.43;3.92;;;;;;;16.87;82.99;96558.69;4936104;29;20052;-77
2023/08/05 01:02:45;;;;;;;5.88;3.28;;;;;;;16.85;82.91;96566.00;4936182;29;20051;-77
2023/08/05 01:05:13;;;;;;;4.40;3.83;;;;;;;16.86;84.94;96562.38;4936334;29;20048;-78
2023/08/05 01:07:42;;;;;;;3.67;3.33;;;;;;;16.88;83.80;96564.78;4936291;29;20102;-78
2023/08/05 01:10:10;;;;;;;3.90;3.35;;;;;;;16.87;83.37;96558.69;4936103;29;20102;-78
2023/08/05 01:12:38;;;;;;;6.72;3.88;;;;;;;16.88;84.46;96565.59;4935902;29;20051;-78
2023/08/05 01:15:08;;;;;;;8.23;3.78;;;;;;;16.88;84.00;96573.50;4935350;29;20067;-78
2023/08/05 01:17:36;;;;;;;4.45;3.88;;;;;;;16.93;84.99;96564.13;4936212;29;20102;-78
2023/08/05 01:20:06;;;;;;;3.72;3.40;;;;;;;16.92;83.82;96565.13;4935859;29;20048;-77
2023/08/05 01:22:40;;;;;;;5.50;4.65;;;;;;;16.91;84.07;96571.44;4936066;29;20067;-78
2023/08/05 01:25:23;;;;;;;5.20;3.97;;;;;;;16.93;84.96;96572.03;4935904;29;20074;-78
2023/08/05 01:27:53;;;;;;;4.35;3.85;;;;;;;16.94;84.63;96573.63;4945540;29;20106;-78
2023/08/05 01:30:22;;;;;;;4.53;4.13;;;;;;;17.00;86.58;96570.09;4950804;29;20068;-78
2023/08/05 01:32:52;;;;;;;4.43;4.03;;;;;;;16.98;84.57;96564.25;4949278;29;20051;-79
2023/08/05 01:35:22;;;;;;;4.30;3.90;;;;;;;16.95;83.94;96559.44;4949075;29;20730;-78
2023/08/05 01:37:50;;;;;;;5.90;4.03;;;;;;;16.98;85.92;96558.97;4936131;29;20481;-78
2023/08/05 01:40:19;;;;;;;5.40;4.80;;;;;;;17.00;85.62;96556.91;4942562;29;20060;-77
2023/08/05 01:42:46;;;;;;;5.18;4.45;;;;;;;17.02;86.97;96553.03;4941504;29;20493;-78
2023/08/05 01:45:14;;;;;;;6.28;5.05;;;;;;;17.03;86.18;96546.75;4935543;29;20112;-78
2023/08/05 01:47:41;;;;;;;6.93;4.65;;;;;;;17.03;86.57;96538.00;4935981;29;20058;-78
2023/08/05 01:50:10;;;;;;;5.55;4.78;;;;;;;17.04;86.24;96547.53;4935362;29;20126;-77
2023/08/05 01:52:37;;;;;;;5.63;4.63;;;;;;;17.00;84.43;96535.84;4934969;29;20502;-78
2023/08/05 01:55:05;;;;;;;6.50;5.05;;;;;;;16.97;84.63;96531.03;4935733;29;20056;-78
2023/08/05 01:57:35;;;;;;;9.35;4.90;;;;;;;16.93;84.33;96529.88;4940191;29;20048;-78
2023/08/05 02:00:03;;;;;;;6.97;5.63;;;;;;;16.92;85.21;96534.31;4941079;29;20051;-78
2023/08/05 02:02:30;;;;;;;10.57;5.20;;;;;;;16.92;84.75;96520.34;4940827;29;20052;-78
2023/08/05 02:04:59;;;;;;;5.32;4.28;;;;;;;16.89;84.99;96514.50;4937984;29;20135;-78
2023/08/05 02:07:27;;;;;;;6.60;5.15;;;;;;;16.89;85.94;96516.31;4936566;29;20098;-79
2023/08/05 02:09:54;;;;;;;7.13;4.93;;;;;;;16.85;84.90;96517.78;4935913;29;20410;-78
2023/08/05 02:12:22;;;;;;;7.95;5.22;;;;;;;16.83;84.78;96512.75;4935119;29;20059;-78
2023/08/05 02:14:51;;;;;;;6.80;5.43;;;;;;;16.83;86.72;96512.75;4935067;29;20052;-77
2023/08/05 02:17:20;;;;;;;8.38;5.10;;;;;;;16.86;85.94;96514.94;4935006;29;20048;-78
2023/08/05 02:19:47;;;;;;;8.90;6.10;;;;;;;16.86;85.25;96503.63;4935010;29;20078;-77
2023/08/05 02:22:15;;;;;;;7.15;5.75;;;;;;;16.86;85.43;96503.63;4934643;29;20110;-78
2023/08/05 02:24:43;;;;;;;6.75;6.00;;;;;;;16.91;86.64;96495.03;4934736;29;20525;-78
2023/08/05 02:27:10;;;;;;;6.60;5.35;;;;;;;16.91;86.91;96484.50;4934217;29;20103;-78
2023/08/05 02:29:39;;;;;;;6.68;5.57;;;;;;;16.93;87.08;96482.44;4935030;29;20081;-77
2023/08/05 02:32:09;;;;;;;8.00;6.65;;;;;;;16.89;85.07;96477.59;4934371;29;20051;-78
2023/08/05 02:34:36;;;;;;;8.68;6.85;;;;;;;16.86;84.12;96485.97;4935065;29;20127;-78
2023/08/05 02:37:04;;;;;;;8.50;6.75;;;;;;;16.84;84.40;96479.31;4934948;29;20047;-78
2023/08/05 02:39:32;;;;;;;8.02;6.30;;;;;;;16.84;85.47;96480.13;4935101;29;20059;-78
2023/08/05 02:41:59;;;;;;;9.13;6.90;;;;;;;16.81;84.76;96458.69;4935971;29;20051;-79
2023/08/05 02:44:27;;;;;;;8.30;6.55;;;;;;;16.79;85.63;96456.25;4935546;29;20067;-77
2023/08/05 02:46:55;;;;;;;7.55;6.28;;;;;;;16.80;85.71;96452.63;4935066;29;20055;-78
2023/08/05 02:49:23;;;;;;;9.13;7.13;;;;;;;16.81;86.55;96466.56;4935067;29;20052;-77
2023/08/05 02:51:51;;;;;;;9.55;6.55;;;;;;;16.80;86.95;96463.16;4934512;29;20056;-78
2023/08/05 02:54:19;;;;;;;8.55;6.93;;;;;;;16.80;86.68;96462.34;4934671;29;20123;-78
2023/08/05 02:56:47;;;;;;;12.07;6.30;;;;;;;16.79;87.49;96487.88;4934532;29;20130;-78
2023/08/05 02:59:15;;;;;;;8.52;6.15;;;;;;;16.78;85.96;96488.88;4934585;29;20079;-78
2023/08/05 03:01:42;;;;;;;8.77;7.00;;;;;;;16.77;86.10;96495.19;4936122;29;20079;-79
2023/08/05 03:04:10;;;;;;;9.93;7.07;;;;;;;16.77;85.82;96495.19;4936552;29;20160;-79
2023/08/05 03:06:39;;;;;;;7.45;6.30;;;;;;;16.77;86.06;96504.91;4935874;29;20094;-78
2023/08/05 03:09:06;;;;;;;9.57;6.88;;;;;;;16.77;86.87;96516.25;4935598;29;20528;-78
2023/08/05 03:11:34;;;;;;;8.65;6.32;;;;;;;16.79;85.87;96530.00;4935735;29;20056;-78
2023/08/05 03:14:02;;;;;;;8.63;6.72;;;;;;;16.80;86.88;96528.22;4935376;29;20055;-77
2023/08/05 03:16:29;;;;;;;10.30;7.00;;;;;;;16.80;85.74;96528.22;4934740;29;20054;-78
2023/08/05 03:18:57;;;;;;;7.30;6.15;;;;;;;16.78;84.99;96538.13;4934797;29;20086;-78
2023/08/05 03:21:25;;;;;;;9.50;6.80;;;;;;;16.77;84.67;96545.25;4934212;29;20055;-77
2023/08/05 03:23:54;;;;;;;9.48;6.32;;;;;;;16.78;84.25;96544.19;4934262;29;20425;-78
2023/08/05 03:26:21;;;;;;;8.43;6.32;;;;;;;16.77;83.82;96542.59;4933970;29;20091;-78
2023/08/05 03:28:49;;;;;;;9.48;6.50;;;;;;;16.79;85.48;96539.72;4934340;29;20533;-78
2023/08/05 03:31:16;;;;;;;9.73;7.35;;;;;;;16.80;85.19;96539.53;4934222;29;20083;-78
2023/08/05 03:33:45;;;;;;;11.15;6.78;;;;;;;16.79;84.62;96543.19;4939130;29;20103;-78
2023/08/05 03:36:12;;;;;;;9.32;7.35;;;;;;;16.76;83.67;96546.25;4941318;29;20438;-78
2023/08/05 03:38:40;;;;;;;9.80;6.97;;;;;;;16.73;83.57;96546.69;4938166;29;20056;-78
2023/08/05 03:41:09;;;;;;;11.18;7.57;;;;;;;16.73;85.39;96546.69;4937737;29;20143;-78
2023/08/05 03:43:36;;;;;;;8.70;6.88;;;;;;;16.75;85.74;96552.56;4938266;29;20481;-78
2023/08/05 03:46:04;;;;;;;11.40;7.85;;;;;;;16.79;86.53;96551.09;4937907;29;20138;-78
2023/08/05 03:48:32;;;;;;;9.45;7.07;;;;;;;16.80;86.32;96555.34;4937599;29;20051;-77
2023/08/05 03:50:59;;;;;;;8.02;6.20;;;;;;;16.82;86.18;96558.56;4945170;29;20099;-78
2023/08/05 03:53:27;;;;;;;7.80;6.70;;;;;;;16.83;85.82;96560.16;4939776;29;20095;-77
2023/08/05 03:55:54;;;;;;;10.48;7.97;;;;;;;16.87;86.64;96560.53;4937600;29;20086;-78
2023/08/05 03:58:25;;;;;;;8.20;6.75;;;;;;;16.88;87.45;96565.59;4937582;29;20048;-78
2023/08/05 04:00:53;;;;;;;9.30;6.55;;;;;;;16.88;86.56;96570.84;4936808;29;20597;-77
2023/08/05 04:03:21;;;;;;;8.48;7.10;;;;;;;16.89;86.91;96575.09;4937210;29;20062;-77
2023/08/05 04:05:49;;;;;;;9.02;6.82;;;;;;;16.89;86.21;96569.03;4937186;29;20051;-78
2023/08/05 04:08:17;;;;;;;11.02;6.70;;;;;;;16.87;86.23;96584.25;4937364;29;20399;-78
2023/08/05 04:10:45;;;;;;;8.57;6.57;;;;;;;16.87;86.73;96585.03;4937011;29;20083;-77
2023/08/05 04:13:16;;;;;;;8.48;6.35;;;;;;;16.86;86.26;96583.44;4936762;29;20518;-78
2023/08/05 04:15:45;;;;;;;9.38;6.65;;;;;;;16.84;86.53;96580.22;4937091;29;20056;-77
2023/08/05 04:18:13;;;;;;;9.15;6.53;;;;;;;16.83;86.06;96572.53;4937017;29;20410;-78
2023/08/05 04:20:41;;;;;;;11.05;7.30;;;;;;;16.82;86.19;96570.94;4936910;29;20059;-77
2023/08/05 04:23:09;;;;;;;8.10;6.70;;;;;;;16.80;85.58;96560.63;4936801;29;20091;-78
2023/08/05 04:25:36;;;;;;;8.02;6.45;;;;;;;16.77;86.05;96561.03;4936974;29;20083;-77
2023/08/05 04:28:04;;;;;;;8.95;6.18;;;;;;;16.77;85.82;96558.41;4936819;29;20056;-78
2023/08/05 04:30:32;;;;;;;8.35;6.47;;;;;;;16.76;85.27;96551.50;4936885;29;20090;-78
2023/08/05 04:33:01;;;;;;;10.70;6.63;;;;;;;16.74;83.98;96564.09;4936289;29;20425;-78
2023/08/05 04:35:28;;;;;;;9.65;6.97;;;;;;;16.72;84.69;96562.72;4936611;29;20509;-77
2023/08/05 04:37:56;;;;;;;9.20;6.70;;;;;;;16.74;85.60;96563.31;4936767;29;20044;-78
2023/08/05 04:40:23;;;;;;;11.00;7.10;;;;;;;16.72;84.47;96560.88;4936485;29;20142;-79
2023/08/05 04:42:51;;;;;;;8.35;7.28;;;;;;;16.73;85.98;96570.41;4936058;29;20081;-78
2023/08/05 04:45:18;;;;;;;10.23;6.75;;;;;;;16.73;85.79;96572.25;4936646;29;20056;-77
2023/08/05 04:47:46;;;;;;;12.45;8.32;;;;;;;16.68;85.04;96578.97;4936705;29;20051;-79
2023/08/05 04:50:15;;;;;;;9.88;7.45;;;;;;;16.64;84.63;96582.28;4935862;29;20099;-77
2023/08/05 04:52:44;;;;;;;9.43;7.43;;;;;;;16.58;85.31;96589.22;4936139;29;20115;-77
2023/08/05 04:55:15;;;;;;;13.18;7.47;;;;;;;16.55;84.90;96581.75;4936270;29;20059;-78
2023/08/05 04:57:43;;;;;;;12.40;8.07;;;;;;;16.56;85.75;96579.94;4936280;29;20048;-78
2023/08/05 05:00:12;;;;;;;9.05;7.18;;;;;;;16.57;84.80;96576.25;4935864;29;20494;-78
2023/08/05 05:02:39;;;;;;;10.95;7.88;;;;;;;16.55;83.82;96583.56;4935865;29;20052;-77
2023/08/05 05:05:08;;;;;;;10.73;7.95;;;;;;;16.53;84.56;96585.63;4936028;29;20142;-77
2023/08/05 05:07:37;;;;;;;13.05;7.85;;;;;;;16.51;83.47;96574.50;4936197;29;20103;-77
2023/08/05 05:10:06;;;;;;;11.90;8.30;;;;;;;16.52;84.27;96576.13;4935817;29;20533;-78
2023/08/05 05:12:34;;;;;;;10.57;8.23;;;;;;;16.52;85.01;96574.28;4935562;29;20450;-77
2023/08/05 05:15:01;;;;;;;12.40;8.30;;;;;;;16.51;84.28;96567.44;4936287;29;20071;-77
2023/08/05 05:17:34;;;;;;;10.73;8.48;;;;;;;16.53;84.71;96577.72;4935930;29;20047;-77
2023/08/05 05:20:01;;;;;;;10.20;8.00;;;;;;;16.56;84.24;96572.03;4935741;29;20056;-77
2023/08/05 05:22:29;;;;;;;12.05;8.68;;;;;;;16.58;84.82;96569.97;4935733;29;20087;-78
2023/08/05 05:24:59;;;;;;;14.20;9.15;;;;;;;16.62;86.89;96571.16;4935566;29;20060;-78
2023/08/05 05:27:26;;;;;;;13.32;8.80;;;;;;;16.60;84.03;96570.56;4935807;29;20051;-78
2023/08/05 05:29:54;;;;;;;11.80;8.73;;;;;;;16.56;84.60;96562.28;4935605;29;20111;-78
2023/08/05 05:32:21;;;;;;;13.18;9.35;;;;;;;16.54;84.67;96560.91;4935402;29;20075;-77
2023/08/05 05:34:49;;;;;;;11.27;8.32;;;;;;;16.52;84.15;96557.69;4935591;29;20086;-78
2023/08/05 05:37:17;;;;;;;12.75;9.20;;;;;;;16.52;84.45;96563.75;4935576;29;20051;-78
2023/08/05 05:39:45;;;;;;;9.20;8.10;;;;;;;16.51;83.20;96561.34;4916477;29;20055;-78
2023/08/05 05:42:15;;;;;;;14.02;9.02;;;;;;;16.51;84.15;96561.34;4916552;29;20099;-78
2023/08/05 05:44:47;;;;;;;13.70;8.95;;;;;;;16.50;85.32;96559.72;4916555;29;20079;-77
2023/08/05 05:47:15;;;;;;;10.80;8.65;;;;;;;16.46;84.44;96562.81;4916610;29;20059;-78
2023/08/05 05:49:42;;;;;;;12.23;9.65;;;;;;;16.45;85.05;96555.94;4916379;29;20052;-78
2023/08/05 05:52:13;;;;;;;13.13;9.18;;;;;;;16.46;85.21;96552.28;4915930;29;20111;-78
2023/08/05 05:54:40;;;;;;;12.68;9.35;;;;;;;16.45;85.39;96549.88;4930185;29;20106;-77
2023/08/05 05:57:09;;;;;;;11.13;8.48;;;;;;;16.51;86.30;96548.16;4935347;29;20055;-78
2023/08/05 05:59:38;;;;;;;12.88;9.38;;;;;;;16.55;86.60;96555.44;4935256;29;20087;-78
2023/08/05 06:02:07;;;;;;;13.27;9.43;;;;;;;16.60;87.09;96554.78;4916397;29;20059;-77
2023/08/05 06:04:35;;;;;;;10.13;8.85;;;;;;;16.61;85.82;96565.06;4919774;29;20052;-78
2023/08/05 06:07:03;;;;;;;13.32;9.25;;;;;;;16.59;86.27;96551.31;4935244;29;20051;-77
2023/08/05 06:09:32;;;;;;;10.70;8.25;;;;;;;16.58;86.13;96549.72;4935097;29;20054;-77
2023/08/05 06:12:00;;;;;;;11.20;9.05;;;;;;;16.60;86.35;96544.22;4935025;29;20055;-77
2023/08/05 06:14:28;;;;;;;12.80;8.57;;;;;;;16.63;85.47;96541.94;4944742;28;20055;-77
2023/08/05 06:16:57;;;;;;;12.73;8.95;;;;;;;16.67;85.40;96544.94;4935364;29;20142;-78
2023/08/05 06:19:25;;;;;;;13.38;9.50;;;;;;;16.69;86.06;96550.81;4935214;29;20059;-77
2023/08/05 06:21:53;;;;;;;14.05;8.48;;;;;;;16.68;85.32;96550.00;4934904;29;20047;-78
2023/08/05 06:24:21;;;;;;;13.10;8.73;;;;;;;16.67;83.46;96558.13;4938901;29;20047;-78
2023/08/05 06:26:48;;;;;;;11.18;8.73;;;;;;;16.63;84.23;96557.75;4941477;29;20052;-78
2023/08/05 06:29:16;;;;;;;13.55;9.30;;;;;;;16.61;84.32;96561.63;4970346;23;20043;-86
2023/08/05 06:31:44;;;;;;;10.77;8.45;;;;;;;16.58;83.31;96569.97;4979991;28;20074;-85
2023/08/05 06:34:13;;;;;;;13.60;8.82;;;;;;;16.60;84.56;96578.47;4981415;28;20105;-85
2023/08/05 06:36:40;;;;;;;10.80;8.82;;;;;;;16.60;84.41;96576.63;4980166;28;20102;-84
2023/08/05 06:39:08;;;;;;;11.23;8.88;;;;;;;16.64;85.98;96574.38;4979844;28;20051;-87
2023/08/05 06:41:36;;;;;;;10.80;8.60;;;;;;;16.66;85.69;96572.28;4980100;28;20078;-88
2023/08/05 06:44:03;;;;;;;12.35;8.70;;;;;;;16.63;83.99;96570.13;4980484;28;20074;-85
2023/08/05 06:46:31;;;;;;;11.27;8.10;;;;;;;16.64;85.27;96574.38;4980453;28;20078;-88
2023/08/05 06:48:59;;;;;;;10.00;8.05;;;;;;;16.65;84.34;96570.69;4979944;28;20070;-81
2023/08/05 06:51:31;;;;;;;10.75;7.88;;;;;;;16.66;83.45;96574.94;4980830;28;20117;-88
2023/08/05 06:53:59;;;;;;;13.07;7.68;;;;;;;16.63;82.23;96575.38;4980104;28;20055;-88
2023/08/05 06:56:27;;;;;;;10.40;8.43;;;;;;;16.64;83.56;96579.63;4980850;28;20133;-87
2023/08/05 06:58:54;;;;;;;11.48;8.02;;;;;;;16.64;82.39;96582.28;4979739;28;20047;-84
2023/08/05 07:01:22;;;;;;;10.38;8.05;;;;;;;16.64;83.10;96577.00;4980833;28;20612;-83
2023/08/05 07:03:50;;;;;;;11.80;8.88;;;;;;;16.67;85.03;96579.19;4979187;28;20078;-85
2023/08/05 07:06:18;;;;;;;10.90;7.60;;;;;;;16.68;83.22;96571.06;4979603;28;20116;-85
2023/08/05 07:08:47;;;;;;;11.15;8.43;;;;;;;16.69;83.64;96563.97;4980209;28;20081;-81
2023/08/05 07:11:14;;;;;;;10.27;7.93;;;;;;;16.74;85.40;96569.38;4978286;28;20055;-82
2023/08/05 07:13:42;;;;;;;10.45;8.32;;;;;;;16.78;85.36;96561.84;4982297;28;20103;-83
2023/08/05 07:16:10;;;;;;;12.27;8.07;;;;;;;16.77;83.46;96562.84;4984327;28;20086;-88
2023/08/05 07:18:37;;;;;;;10.75;8.85;;;;;;;16.75;82.90;96571.00;4984126;28;20497;-84
2023/08/05 07:21:05;;;;;;;9.23;7.03;;;;;;;16.75;82.68;96563.09;4983389;28;20050;-87
2023/08/05 07:23:33;;;;;;;10.40;7.68;;;;;;;16.80;83.27;96560.63;4983938;28;20078;-86
2023/08/05 07:26:02;;;;;;;11.70;8.32;;;;;;;16.85;83.30;96565.22;4982698;28;20058;-86
2023/08/05 07:28:30;;;;;;;10.65;7.57;;;;;;;16.83;83.19;96559.38;4983180;28;20083;-83
2023/08/05 07:31:05;;;;;;;8.77;7.45;;;;;;;16.82;84.13;96555.94;4984312;28;20554;-87
2023/08/05 07:33:33;;;;;;;9.40;7.40;;;;;;;16.83;82.52;96551.47;4985106;28;20047;-86
2023/08/05 07:36:08;;;;;;;10.50;7.88;;;;;;;16.82;82.31;96555.13;4984434;28;20058;-89
2023/08/05 07:38:38;;;;;;;9.75;7.55;;;;;;;16.80;82.99;96544.81;4984934;28;20113;-84
2023/08/05 07:41:11;;;;;;;9.60;7.47;;;;;;;16.85;84.53;96547.56;4984482;28;20050;-85
2023/08/05 07:43:39;;;;;;;29.60;19.77;;;;;;;16.92;83.97;96542.22;4985105;28;20062;-84
2023/08/05 07:46:07;;;;;;;16.48;11.27;;;;;;;16.99;82.27;96536.84;4984135;28;20105;-85
2023/08/05 07:48:35;;;;;;;16.50;12.43;;;;;;;16.99;81.89;96542.94;4984294;28;20199;-85
2023/08/05 07:51:05;;;;;;;9.48;8.05;;;;;;;17.02;81.50;96534.59;4984593;28;20059;-83
2023/08/05 07:53:35;;;;;;;11.90;7.78;;;;;;;17.14;82.91;96531.19;4984401;28;20055;-86
2023/08/05 07:56:08;;;;;;;8.38;6.78;;;;;;;17.18;80.09;96541.03;4985063;28;20046;-86
2023/08/05 07:58:40;;;;;;;11.02;7.10;;;;;;;17.19;80.21;96534.75;4983912;28;20047;-86
2023/08/05 08:01:08;;;;;;;10.43;7.37;;;;;;;17.24;81.77;96537.50;4983717;28;20055;-88
2023/08/05 08:03:35;;;;;;;6.53;5.40;;;;;;;17.27;79.93;96530.97;4983845;28;20055;-85
2023/08/05 08:06:03;;;;;;;7.57;6.47;;;;;;;17.31;80.11;96532.16;4985342;28;20110;-86
2023/08/05 08:08:31;;;;;;;8.25;6.63;;;;;;;17.34;78.73;96530.88;4981360;28;20055;-85
2023/08/05 08:10:59;;;;;;;10.55;6.70;;;;;;;17.37;78.62;96536.50;4980467;28;20055;-86
2023/08/05 08:13:27;;;;;;;10.55;7.88;;;;;;;17.41;79.92;96531.59;4982428;28;20504;-85
2023/08/05 08:15:56;;;;;;;24.77;18.23;;;;;;;17.50;81.04;96530.25;4982236;28;20054;-81
2023/08/05 08:18:24;;;;;;;11.38;8.43;;;;;;;17.58;79.89;96540.47;4982523;28;20475;-88
2023/08/05 08:20:52;;;;;;;9.35;6.15;;;;;;;17.63;78.25;96545.06;4982187;28;20093;-85
2023/08/05 08:23:20;;;;;;;7.72;6.60;;;;;;;17.68;79.33;96538.03;4982846;28;20567;-87
2023/08/05 08:25:48;;;;;;;8.10;6.18;;;;;;;17.76;78.07;96538.75;4978199;28;20047;-84
2023/08/05 08:28:15;;;;;;;7.07;6.07;;;;;;;17.82;77.44;96548.41;4983883;28;20053;-82
2023/08/05 08:30:51;;;;;;;7.20;6.32;;;;;;;17.90;79.11;96548.06;4977283;28;20058;-86
2023/08/05 08:33:20;;;;;;;7.30;5.50;;;;;;;17.92;76.96;96546.00;4985456;28;20479;-86
2023/08/05 08:35:57;;;;;;;13.82;6.25;;;;;;;17.94;77.96;96541.31;4985451;28;20055;-88
2023/08/05 08:38:32;;;;;;;6.97;6.18;;;;;;;17.92;78.27;96549.44;4992794;28;20039;-87
2023/08/05 08:41:27;;;;;;;67.82;44.92;;;;;;;17.93;77.90;96550.28;4997701;28;20041;-90
2023/08/05 08:44:05;;;;;;;11.98;8.40;;;;;;;17.92;77.68;96560.00;4999197;28;20062;-89
2023/08/05 08:46:34;;;;;;;9.00;6.00;;;;;;;17.96;77.88;96556.91;4994594;28;20039;-91
2023/08/05 08:49:16;;;;;;;7.50;5.55;;;;;;;18.01;76.46;96551.75;4999527;28;20041;-89
2023/08/05 08:51:48;;;;;;;6.68;5.97;;;;;;;18.07;78.69;96551.63;4996705;28;20035;-89
2023/08/05 08:54:26;;;;;;;7.43;5.70;;;;;;;18.14;77.65;96550.72;4989397;28;20035;-89
2023/08/05 08:56:58;;;;;;;10.52;7.00;;;;;;;18.16;76.17;96554.72;4986585;28;20030;-89
2023/08/05 10:32:10;;;;;;;5.97;4.38;;;;;;;19.75;67.93;96486.28;3256569;23;20058;-81
2023/08/05 10:35:40;;;;;;;8.45;4.43;;;;;;;19.79;69.70;96491.88;4962950;28;20051;-81
2023/08/05 11:06:41;;;;;;;4.22;3.10;;;;;;;20.70;63.76;96454.38;3908511;23;20082;-80
2023/08/05 11:09:11;;;;;;;3.58;3.28;;;;;;;20.69;63.75;96458.09;4979468;28;20054;-80
2023/08/05 11:11:40;;;;;;;4.22;3.70;;;;;;;20.69;62.28;96448.28;4978856;28;20051;-79
2023/08/05 11:14:12;;;;;;;3.58;3.17;;;;;;;20.77;63.35;96447.00;4972749;28;20106;-80
2023/08/05 11:16:53;;;;;;;4.97;4.00;;;;;;;20.92;62.17;96447.16;4982215;28;20055;-80
2023/08/05 11:19:23;;;;;;;5.20;3.58;;;;;;;21.08;61.44;96445.47;4976923;28;20086;-79
2023/08/05 11:25:45;;;;;;;3.05;2.75;;;;;;;21.45;59.12;96425.31;5508031;23;20062;-78
2023/08/05 16:44:55;;;;;;;4.47;3.30;;;;;;;21.59;53.51;96129.22;5730427;23;20809;31
2023/08/05 16:50:52;;;;;;;20.70;16.25;;;;;;;21.61;54.67;96116.50;5055670;23;20093;-82
2023/08/05 17:02:46;;;;;;;22.08;16.63;;;;;;;21.60;52.18;96102.44;5040372;23;20039;-82
